Time;durP1;ratioP1;P1;durP2;ratioP2;P2;SDS_P1;SDS_P2;PMS_P1;PMS_P2;Temp;Humidity;BMP_temperature;BMP_pressure;BME280_temperature;BME280_humidity;BME280_pressure;Samples;Min_cycle;Max_cycle;Signal;HPM_P1;HPM_P2
2023/03/21 00:00:31;;;;;;;0.00;0.00;;;;;;;;;;6308201;22;20052;-91
2023/03/21 00:02:57;;;;;;;0.00;0.00;;;;;;;;;;6306976;22;20064;-91
2023/03/21 00:05:23;;;;;;;0.00;0.00;;;;;;;;;;6310329;22;20088;-90
2023/03/21 00:07:48;;;;;;;0.10;0.10;;;9.60;99.90;;;;;;6309572;22;20007;-90
2023/03/21 00:10:15;;;;;;;0.00;0.00;;;;;;;;;;6310414;22;19991;-91
2023/03/21 00:12:41;;;;;;;0.00;0.00;;;9.70;99.90;;;;;;6310413;22;20029;-90
2023/03/21 00:15:08;;;;;;;0.00;0.00;;;9.70;99.90;;;;;;6309401;22;20002;-90
2023/03/21 00:17:34;;;;;;;0.03;0.03;;;;;;;;;;6336549;22;20010;-90
2023/03/21 00:20:04;;;;;;;0.00;0.00;;;9.80;99.90;;;;;;6308570;22;20002;-91
2023/03/21 00:22:30;;;;;;;0.10;0.10;;;9.70;99.90;;;;;;6308509;22;20446;-91
2023/03/21 00:24:55;;;;;;;0.00;0.00;;;9.80;99.90;;;;;;6306530;22;20013;-90
2023/03/21 00:27:21;;;;;;;0.05;0.05;;;9.70;99.90;;;;;;6308456;22;20038;-91
2023/03/21 00:29:48;;;;;;;0.10;0.10;;;9.70;99.90;;;;;;6307105;22;20085;-90
2023/03/21 00:32:14;;;;;;;0.10;0.10;;;9.70;99.90;;;;;;6310105;22;20052;-90
2023/03/21 00:34:40;;;;;;;0.05;0.05;;;9.70;99.90;;;;;;6311349;22;20026;-89
2023/03/21 00:37:07;;;;;;;0.00;0.00;;;9.70;99.90;;;;;;6310519;22;20197;-90
2023/03/21 00:39:34;;;;;;;0.10;0.10;;;;;;;;;;6307926;22;20031;-90
2023/03/21 00:41:59;;;;;;;0.10;0.10;;;9.70;99.90;;;;;;6309782;22;20079;-90
2023/03/21 00:44:25;;;;;;;0.10;0.10;;;9.70;99.90;;;;;;6337293;22;20157;-91
2023/03/21 00:46:51;;;;;;;0.00;0.00;;;;;;;;;;6310418;22;20005;-90
2023/03/21 00:49:19;;;;;;;0.00;0.00;;;;;;;;;;6308873;22;20026;-90
2023/03/21 00:51:45;;;;;;;0.10;0.10;;;;;;;;;;6338281;22;20078;-90
2023/03/21 00:54:11;;;;;;;0.00;0.00;;;9.70;99.90;;;;;;6309470;22;20030;-90
2023/03/21 00:56:37;;;;;;;0.10;0.10;;;;;;;;;;6337068;22;20062;-90
2023/03/21 00:59:03;;;;;;;0.10;0.10;;;9.60;99.90;;;;;;6308915;22;20023;-89
2023/03/21 01:01:30;;;;;;;0.10;0.10;;;9.60;99.90;;;;;;6310007;22;19999;-90
2023/03/21 01:04:04;;;;;;;0.00;0.00;;;9.60;99.90;;;;;;6338498;22;20001;-91
2023/03/21 01:06:32;;;;;;;0.00;0.00;;;9.60;99.90;;;;;;6310800;22;20030;-90
2023/03/21 01:08:58;;;;;;;0.10;0.10;;;;;;;;;;6308497;22;20439;-90
2023/03/21 01:11:26;;;;;;;0.10;0.10;;;9.50;99.90;;;;;;6310765;22;20086;-91
2023/03/21 01:13:53;;;;;;;0.10;0.10;;;9.40;99.90;;;;;;6310257;22;20011;-90
2023/03/21 01:16:19;;;;;;;0.10;0.10;;;;;;;;;;6311580;22;20450;-91
2023/03/21 01:18:45;;;;;;;0.00;0.00;;;;;;;;;;6311264;22;20005;-90
2023/03/21 01:21:13;;;;;;;0.00;0.00;;;9.50;99.90;;;;;;6310772;22;20090;-91
2023/03/21 01:23:40;;;;;;;0.10;0.10;;;9.60;99.90;;;;;;6310484;22;20451;-91
2023/03/21 01:26:07;;;;;;;0.00;0.00;;;9.50;99.90;;;;;;6311194;22;20071;-88
2023/03/21 01:28:36;;;;;;;0.10;0.10;;;9.60;99.90;;;;;;6310989;22;20316;-90
2023/03/21 01:31:03;;;;;;;0.10;0.10;;;9.50;99.90;;;;;;6308266;22;20003;-90
2023/03/21 01:33:29;;;;;;;0.10;0.10;;;;;;;;;;6310594;22;20006;-90
2023/03/21 01:35:55;;;;;;;0.10;0.10;;;;;;;;;;6310297;22;20010;-90
2023/03/21 01:38:20;;;;;;;0.10;0.10;;;9.40;99.90;;;;;;6309487;22;19999;-89
2023/03/21 01:40:47;;;;;;;0.10;0.10;;;9.40;99.90;;;;;;6308838;22;20033;-90
2023/03/21 01:43:32;;;;;;;0.00;0.00;;;9.40;99.90;;;;;;6310168;22;20003;-90
2023/03/21 01:46:29;;;;;;;0.00;0.00;;;9.90;99.90;;;;;;6303957;22;20462;-90
2023/03/21 01:49:10;;;;;;;0.00;0.00;;;9.50;99.90;;;;;;6309903;22;20006;-90
2023/03/21 01:51:41;;;;;;;0.03;0.03;;;9.60;99.90;;;;;;6309535;22;20045;-90
2023/03/21 01:54:13;;;;;;;0.00;0.00;;;9.60;99.90;;;;;;6308208;22;20007;-90
2023/03/21 01:56:40;;;;;;;0.05;0.05;;;9.60;99.90;;;;;;6306105;22;20007;-90
2023/03/21 01:59:20;;;;;;;0.00;0.00;;;9.70;99.90;;;;;;6309037;22;20076;-90
2023/03/21 02:01:47;;;;;;;0.00;0.00;;;9.60;99.90;;;;;;6308420;22;20010;-91
2023/03/21 02:04:13;;;;;;;0.00;0.00;;;;;;;;;;6309473;22;20006;-90
2023/03/21 02:06:56;;;;;;;0.00;0.00;;;9.70;99.90;;;;;;6307942;22;20412;-90
2023/03/21 02:09:24;;;;;;;0.10;0.10;;;9.70;99.90;;;;;;6307758;22;20010;-90
2023/03/21 02:11:52;;;;;;;0.00;0.00;;;9.60;99.90;;;;;;6307692;22;20058;-90
2023/03/21 02:14:18;;;;;;;0.10;0.10;;;9.70;99.90;;;;;;6307752;22;20011;-90
2023/03/21 02:16:44;;;;;;;0.10;0.10;;;;;;;;;;6307837;22;20011;-90
2023/03/21 02:19:22;;;;;;;0.10;0.10;;;9.60;99.90;;;;;;6306275;22;20009;-90
2023/03/21 02:22:04;;;;;;;0.00;0.00;;;9.60;99.90;;;;;;6306306;22;20464;-90
2023/03/21 02:24:44;;;;;;;0.10;0.10;;;9.50;99.90;;;;;;6335444;22;19998;-92
2023/03/21 02:27:14;;;;;;;0.10;0.10;;;9.50;99.90;;;;;;6305786;22;20007;-90
2023/03/21 02:29:58;;;;;;;0.05;0.05;;;9.50;99.90;;;;;;6308652;22;20360;-89
2023/03/21 02:32:50;;;;;;;0.10;0.10;;;9.50;99.90;;;;;;6307856;22;20007;-90
2023/03/21 02:35:48;;;;;;;0.10;0.10;;;9.00;99.90;;;;;;6276173;22;20026;-91
2023/03/21 02:38:29;;;;;;;0.10;0.10;;;9.40;99.90;;;;;;6308217;22;20002;-90
2023/03/21 02:41:10;;;;;;;0.10;0.10;;;9.40;99.90;;;;;;6308945;22;19999;-90
2023/03/21 02:43:53;;;;;;;0.00;0.00;;;9.40;99.90;;;;;;6304318;22;20038;-90
2023/03/21 02:46:27;;;;;;;0.00;0.00;;;9.40;99.90;;;;;;6307156;22;20090;-90
2023/03/21 02:49:00;;;;;;;0.00;0.00;;;9.40;99.90;;;;;;6308243;22;20019;-90
2023/03/21 02:51:28;;;;;;;0.10;0.10;;;9.40;99.90;;;;;;6307398;22;19998;-90
2023/03/21 02:54:08;;;;;;;0.10;0.10;;;9.40;99.90;;;;;;6308629;22;20351;-89
2023/03/21 02:56:35;;;;;;;;;;;9.40;99.90;;;;;;6308616;22;20014;-91
2023/03/21 02:59:03;;;;;;;0.10;0.10;;;9.50;99.90;;;;;;6335471;22;19898;-91
2023/03/21 03:01:28;;;;;;;0.10;0.10;;;9.30;99.90;;;;;;6308603;22;20435;-90
2023/03/21 03:03:54;;;;;;;0.10;0.10;;;9.40;99.90;;;;;;6310254;22;20024;-90
2023/03/21 03:06:26;;;;;;;0.10;0.10;;;9.50;99.90;;;;;;6308895;22;20014;-90
2023/03/21 03:09:21;;;;;;;0.10;0.10;;;9.50;99.90;;;;;;6308614;22;20006;-91
2023/03/21 03:11:54;;;;;;;0.03;0.03;;;9.50;99.90;;;;;;6309611;22;20034;-90
2023/03/21 03:14:44;;;;;;;0.10;0.10;;;9.40;99.90;;;;;;6336492;22;20024;-91
2023/03/21 03:17:17;;;;;;;0.10;0.10;;;9.40;99.90;;;;;;6307741;22;20014;-90
2023/03/21 03:20:21;;;;;;;0.10;0.10;;;9.30;99.90;;;;;;6336827;22;20371;-90
2023/03/21 03:23:04;;;;;;;0.10;0.10;;;9.30;99.90;;;;;;6248958;22;20082;-90
2023/03/21 03:25:47;;;;;;;0.10;0.10;;;9.20;99.90;;;;;;6308663;22;19999;-90
2023/03/21 03:28:17;;;;;;;0.00;0.00;;;9.30;99.90;;;;;;6308527;22;20003;-91
2023/03/21 03:30:43;;;;;;;0.10;0.10;;;9.30;99.90;;;;;;6336729;22;20002;-90
2023/03/21 03:33:10;;;;;;;0.00;0.00;;;;;;;;;;6307906;22;20002;-90
2023/03/21 03:35:35;;;;;;;0.10;0.10;;;9.20;99.90;;;;;;6307362;22;20007;-90
2023/03/21 03:38:05;;;;;;;0.10;0.10;;;9.30;99.90;;;;;;6308982;22;20320;-90
2023/03/21 03:40:40;;;;;;;0.10;0.10;;;9.40;99.90;;;;;;6308983;22;20469;-90
2023/03/21 03:43:25;;;;;;;0.00;0.00;;;9.40;99.90;;;;;;6307924;22;20002;-89
2023/03/21 03:45:57;;;;;;;0.00;0.00;;;9.30;99.90;;;;;;6307416;22;20451;-91
2023/03/21 03:48:48;;;;;;;0.10;0.10;;;9.50;99.90;;;;;;6336454;22;20007;-90
2023/03/21 03:51:21;;;;;;;0.10;0.10;;;9.50;99.90;;;;;;6285745;22;20089;-91
2023/03/21 03:54:12;;;;;;;0.00;0.00;;;9.50;99.90;;;;;;6306610;22;20003;-90
2023/03/21 03:56:38;;;;;;;0.00;0.00;;;9.50;99.90;;;;;;6307583;22;20006;-90
2023/03/21 03:59:06;;;;;;;0.10;0.10;;;9.40;99.90;;;;;;6304290;22;19999;-89
2023/03/21 04:01:32;;;;;;;0.10;0.10;;;;;;;;;;6307535;22;19999;-89
2023/03/21 04:03:59;;;;;;;0.10;0.10;;;;;;;;;;6309705;22;20351;-90
2023/03/21 04:06:25;;;;;;;0.10;0.10;;;9.40;99.90;;;;;;6309789;22;20004;-90
2023/03/21 04:08:50;;;;;;;0.10;0.10;;;9.40;99.90;;;;;;6310579;22;20011;-91
2023/03/21 04:11:16;;;;;;;0.10;0.10;;;9.50;99.90;;;;;;6310912;22;20059;-90
2023/03/21 04:13:42;;;;;;;0.10;0.10;;;;;;;;;;6309966;22;20040;-89
2023/03/21 04:16:08;;;;;;;0.10;0.10;;;;;;;;;;6309591;22;20017;-90
2023/03/21 04:18:34;;;;;;;0.10;0.10;;;9.60;99.90;;;;;;6310191;22;20090;-90
2023/03/21 04:21:00;;;;;;;0.10;0.10;;;9.60;99.90;;;;;;6337302;22;20010;-90
2023/03/21 04:23:39;;;;;;;0.10;0.10;;;9.60;99.90;;;;;;5083338;27;1178184;-90
2023/03/21 04:26:05;;;;;;;0.10;0.10;;;;;;;;;;5090751;28;20503;-90
2023/03/21 04:28:32;;;;;;;0.10;0.10;;;9.50;99.90;;;;;;5082859;28;20055;-90
2023/03/21 04:30:58;;;;;;;0.00;0.00;;;9.50;99.90;;;;;;5066192;28;20036;-90
2023/03/21 04:33:25;;;;;;;0.08;0.08;;;;;;;;;;5072392;28;20055;-89
2023/03/21 06:21:52;;;;;;;0.00;0.00;;;9.90;99.90;;;;;;5044810;28;20049;-91
2023/03/21 06:24:18;;;;;;;0.00;0.00;;;;;;;;;;5028599;28;20094;-90
2023/03/21 06:26:45;;;;;;;0.10;0.10;;;10.10;99.90;;;;;;5026748;28;20119;-90
2023/03/21 06:29:10;;;;;;;0.03;0.03;;;10.20;99.90;;;;;;5012707;28;20029;-90
2023/03/21 06:31:36;;;;;;;0.10;0.10;;;;;;;;;;5017864;28;20026;-89
2023/03/21 07:40:15;;;;;;;0.00;0.00;;;11.50;99.90;;;;;;4993793;28;20460;-91
2023/03/21 07:42:41;;;;;;;0.00;0.00;;;11.60;99.90;;;;;;4982945;28;20038;-91
2023/03/21 07:45:09;;;;;;;0.00;0.00;;;11.60;99.90;;;;;;4991163;28;20018;-91
2023/03/21 07:47:35;;;;;;;0.00;0.00;;;11.70;99.90;;;;;;4990863;28;20496;-90
2023/03/21 07:50:03;;;;;;;0.00;0.00;;;11.70;99.90;;;;;;4986058;28;20037;-90
2023/03/21 07:52:28;;;;;;;0.00;0.00;;;11.70;99.90;;;;;;4991978;28;20177;-90
2023/03/21 09:38:29;;;;;;;0.00;0.00;;;;;;;;;;5034203;28;20097;-91
2023/03/21 09:41:26;;;;;;;0.00;0.00;;;12.70;99.90;;;;;;5022280;28;20029;-90
2023/03/21 09:44:16;;;;;;;0.00;0.00;;;12.70;99.90;;;;;;5015667;28;20413;-90
2023/03/21 09:47:12;;;;;;;0.00;0.00;;;12.70;99.90;;;;;;5021486;28;20022;-91
2023/03/21 09:49:43;;;;;;;0.00;0.00;;;12.70;99.90;;;;;;5017481;28;20023;-91
2023/03/21 09:52:16;;;;;;;0.00;0.00;;;12.70;99.90;;;;;;5002752;28;20512;-90
2023/03/21 09:54:43;;;;;;;0.00;0.00;;;;;;;;;;5008637;28;20054;-91
2023/03/21 09:57:28;;;;;;;0.00;0.00;;;12.70;99.90;;;;;;5006179;28;20179;-90
2023/03/21 09:59:54;;;;;;;0.00;0.00;;;;;;;;;;5004477;28;20029;-88
2023/03/21 10:02:20;;;;;;;0.00;0.00;;;;;;;;;;4997843;28;20018;-92
2023/03/21 10:04:46;;;;;;;0.00;0.00;;;;;;;;;;5005780;28;20033;-90
2023/03/21 10:07:16;;;;;;;0.10;0.10;;;12.50;99.90;;;;;;5003537;28;20026;-90
2023/03/21 10:09:43;;;;;;;0.00;0.00;;;;;;;;;;5004102;28;20038;-90
2023/03/21 10:12:20;;;;;;;0.00;0.00;;;12.30;99.90;;;;;;5004677;28;20382;-90
2023/03/21 10:14:52;;;;;;;0.00;0.00;;;12.40;99.90;;;;;;5002951;28;20104;-91
2023/03/21 10:17:39;;;;;;;0.00;0.00;;;11.70;99.90;;;;;;5003874;28;20036;-91
2023/03/21 10:20:20;;;;;;;0.00;0.00;;;12.50;99.90;;;;;;5000020;28;20060;-90
2023/03/21 10:22:47;;;;;;;0.00;0.00;;;12.60;99.90;;;;;;5000035;28;20034;-90
2023/03/21 10:25:17;;;;;;;0.00;0.00;;;12.80;99.90;;;;;;5001339;28;20100;-90
2023/03/21 10:27:44;;;;;;;0.00;0.00;;;12.60;99.90;;;;;;5003806;28;20261;-91
2023/03/21 10:30:22;;;;;;;0.00;0.00;;;12.90;99.90;;;;;;5002539;28;20041;-91
2023/03/21 10:32:48;;;;;;;0.00;0.00;;;;;;;;;;5003467;28;20025;-90
2023/03/21 10:35:13;;;;;;;0.00;0.00;;;12.90;99.90;;;;;;5004459;28;20057;-90
2023/03/21 10:37:39;;;;;;;0.00;0.00;;;;;;;;;;5005243;28;20049;-91
2023/03/21 10:40:07;;;;;;;0.00;0.00;;;12.90;99.90;;;;;;5000661;28;20098;-90
2023/03/21 10:42:35;;;;;;;0.00;0.00;;;13.00;99.90;;;;;;5001871;28;20579;-91
2023/03/21 10:45:01;;;;;;;0.00;0.00;;;;;;;;;;5006101;28;20037;-92
2023/03/21 10:47:32;;;;;;;0.00;0.00;;;12.90;99.90;;;;;;5004512;28;20113;-93
2023/03/21 10:50:04;;;;;;;0.00;0.00;;;12.90;99.90;;;;;;5002507;28;20033;-91
2023/03/21 10:52:32;;;;;;;0.00;0.00;;;13.00;99.90;;;;;;5005117;28;20037;-90
2023/03/21 10:55:27;;;;;;;0.00;0.00;;;14.30;99.90;;;;;;4998677;28;20125;-92
2023/03/21 10:57:58;;;;;;;0.00;0.00;;;13.10;99.90;;;;;;5002629;28;20564;-91
2023/03/21 11:00:28;;;;;;;0.00;0.00;;;13.20;99.90;;;;;;4998718;28;20026;-91
2023/03/21 11:02:55;;;;;;;;;;;13.10;99.90;;;;;;5008761;28;20045;-90
2023/03/21 11:05:31;;;;;;;0.00;0.00;;;13.10;99.90;;;;;;5004548;28;19948;-91
2023/03/21 11:08:17;;;;;;;0.00;0.00;;;13.10;99.90;;;;;;5006011;28;20026;-91
2023/03/21 11:11:03;;;;;;;0.00;0.00;;;13.20;99.90;;;;;;5004049;28;20022;-89
2023/03/21 11:13:40;;;;;;;0.00;0.00;;;11.50;99.90;;;;;;5002062;28;20095;-90
2023/03/21 11:16:17;;;;;;;0.10;0.10;;;13.30;99.90;;;;;;4999128;28;20030;-90
2023/03/21 11:18:48;;;;;;;0.00;0.00;;;13.40;99.90;;;;;;5001289;28;20034;-89
2023/03/21 11:21:15;;;;;;;0.00;0.00;;;13.40;99.90;;;;;;4998737;28;20028;-90
2023/03/21 11:23:47;;;;;;;0.00;0.00;;;12.90;99.90;;;;;;5006682;28;20030;-89
2023/03/21 11:26:45;;;;;;;0.00;0.00;;;13.40;99.90;;;;;;5014019;28;20030;-91
2023/03/21 11:29:39;;;;;;;0.00;0.00;;;13.60;99.90;;;;;;5000262;28;20030;-89
2023/03/21 11:32:22;;;;;;;0.00;0.00;;;13.50;99.90;;;;;;5004643;28;20036;-90
2023/03/21 11:34:56;;;;;;;0.00;0.00;;;13.70;99.90;;;;;;5001429;28;20022;-90
2023/03/21 11:37:36;;;;;;;0.00;0.00;;;13.80;99.90;;;;;;5000886;28;20073;-90
2023/03/21 11:40:28;;;;;;;0.00;0.00;;;13.90;99.90;;;;;;4999902;28;20029;-93
2023/03/21 11:42:55;;;;;;;0.00;0.00;;;14.00;99.90;;;;;;4995725;28;20053;-89
2023/03/21 11:45:59;;;;;;;0.00;0.00;;;13.90;99.90;;;;;;4998718;28;20032;-90
2023/03/21 11:48:26;;;;;;;0.00;0.00;;;;;;;;;;5006206;28;20014;-89
2023/03/21 11:51:02;;;;;;;0.00;0.00;;;13.90;99.90;;;;;;5002641;28;20029;-88
2023/03/21 11:53:28;;;;;;;0.00;0.00;;;;;;;;;;5009108;28;20029;-90
2023/03/21 11:55:54;;;;;;;0.00;0.00;;;;;;;;;;5006938;28;20038;-89
2023/03/21 11:58:37;;;;;;;0.00;0.00;;;14.00;99.90;;;;;;5005448;28;20114;-90
2023/03/21 12:01:16;;;;;;;0.00;0.00;;;13.70;99.90;;;;;;5010249;28;20049;-91
2023/03/21 12:03:55;;;;;;;0.00;0.00;;;13.70;99.90;;;;;;5005388;28;20041;-89
2023/03/21 12:06:43;;;;;;;0.00;0.00;;;13.70;99.90;;;;;;5006714;28;20018;-90
2023/03/21 12:09:39;;;;;;;0.00;0.00;;;13.70;99.90;;;;;;5003672;28;20052;-90
2023/03/21 12:12:29;;;;;;;0.00;0.00;;;13.70;99.90;;;;;;5005427;28;21006;-91
2023/03/21 12:15:03;;;;;;;0.00;0.00;;;15.30;99.90;;;;;;5006907;28;20068;-91
2023/03/21 12:17:49;;;;;;;0.00;0.00;;;13.90;99.90;;;;;;5005039;28;20026;-90
2023/03/21 12:20:25;;;;;;;0.00;0.00;;;13.80;99.90;;;;;;5009380;28;20038;-89
2023/03/21 12:23:21;;;;;;;0.00;0.00;;;13.80;99.90;;;;;;5000803;28;20026;-90
2023/03/21 12:26:07;;;;;;;0.00;0.00;;;13.80;99.90;;;;;;5005411;28;20097;-89
2023/03/21 12:28:51;;;;;;;0.00;0.00;;;13.70;99.90;;;;;;5003129;28;20113;-89
2023/03/21 12:31:29;;;;;;;0.00;0.00;;;13.80;99.90;;;;;;5016149;28;20025;-90
2023/03/21 12:34:13;;;;;;;0.00;0.00;;;13.80;99.90;;;;;;4998817;28;20141;-90
2023/03/21 12:36:53;;;;;;;0.00;0.00;;;13.60;99.90;;;;;;5000477;28;20041;-89
2023/03/21 12:39:31;;;;;;;0.00;0.00;;;13.70;99.90;;;;;;5016389;28;20092;-90
2023/03/21 12:41:56;;;;;;;0.00;0.00;;;;;;;;;;5009299;28;20037;-89
2023/03/21 12:44:25;;;;;;;0.00;0.00;;;13.40;99.90;;;;;;5002968;28;20026;-92
2023/03/21 12:47:20;;;;;;;0.00;0.00;;;13.30;99.90;;;;;;5013242;28;20018;-90
2023/03/21 12:49:52;;;;;;;0.00;0.00;;;13.20;99.90;;;;;;5003973;28;20068;-90
2023/03/21 12:52:27;;;;;;;0.00;0.00;;;13.20;99.90;;;;;;5005605;28;20084;-90
2023/03/21 12:55:12;;;;;;;0.00;0.00;;;14.20;99.90;;;;;;5006367;28;20038;-89
2023/03/21 12:57:44;;;;;;;0.00;0.00;;;13.20;99.90;;;;;;5003079;28;20122;-90
2023/03/21 13:00:28;;;;;;;0.00;0.00;;;13.00;99.90;;;;;;5006511;28;20026;-90
2023/03/21 13:02:59;;;;;;;0.00;0.00;;;13.20;99.90;;;;;;5006328;28;20081;-91
2023/03/21 13:05:30;;;;;;;0.00;0.00;;;13.20;99.90;;;;;;5000980;28;20025;-89
2023/03/21 13:08:18;;;;;;;0.00;0.00;;;13.20;99.90;;;;;;5002634;28;20037;-91
2023/03/21 13:10:44;;;;;;;0.00;0.00;;;;;;;;;;5004394;28;20038;-91
2023/03/21 13:13:34;;;;;;;0.00;0.00;;;13.20;99.90;;;;;;5004306;28;20061;-91
2023/03/21 13:16:21;;;;;;;0.00;0.00;;;13.30;99.90;;;;;;5002389;28;20445;-87
2023/03/21 13:19:27;;;;;;;0.00;0.00;;;13.20;99.90;;;;;;4996456;28;20034;-90
2023/03/21 13:22:10;;;;;;;0.00;0.00;;;13.10;99.90;;;;;;4996517;28;20030;-91
2023/03/21 13:24:55;;;;;;;0.00;0.00;;;13.50;99.90;;;;;;5002613;28;20029;-90
2023/03/21 13:27:27;;;;;;;0.00;0.00;;;13.50;99.90;;;;;;5004427;28;20447;-85
2023/03/21 13:29:58;;;;;;;0.00;0.00;;;13.50;99.90;;;;;;5003982;28;20038;-92
2023/03/21 13:32:24;;;;;;;0.00;0.00;;;;;;;;;;5003052;28;20022;-91
2023/03/21 13:35:12;;;;;;;0.00;0.00;;;13.50;99.90;;;;;;5001551;28;20033;-91
2023/03/21 13:37:41;;;;;;;0.00;0.00;;;13.50;99.90;;;;;;5003300;28;20041;-88
2023/03/21 13:40:23;;;;;;;0.00;0.00;;;13.50;99.90;;;;;;5006126;28;20030;-89
2023/03/21 13:43:02;;;;;;;0.00;0.00;;;13.50;99.90;;;;;;5002030;28;20022;-89
2023/03/21 13:45:44;;;;;;;0.00;0.00;;;13.50;99.90;;;;;;5004243;28;20401;-90
2023/03/21 13:48:31;;;;;;;0.00;0.00;;;13.60;99.90;;;;;;4997941;28;20295;-87
2023/03/21 13:51:05;;;;;;;0.00;0.00;;;13.50;99.90;;;;;;5000681;28;20026;-90
2023/03/21 13:53:39;;;;;;;0.00;0.00;;;13.60;99.90;;;;;;5003691;28;20041;-89
2023/03/21 13:56:11;;;;;;;0.00;0.00;;;13.30;99.90;;;;;;4999015;28;20030;-91
2023/03/21 13:58:42;;;;;;;0.00;0.00;;;14.30;99.90;;;;;;4998075;28;20038;-89
2023/03/21 14:01:15;;;;;;;0.00;0.00;;;13.60;99.90;;;;;;4999845;28;20112;-89
2023/03/21 14:03:46;;;;;;;0.00;0.00;;;11.90;99.90;;;;;;5000828;28;20029;-90
2023/03/21 14:06:15;;;;;;;0.00;0.00;;;13.80;99.90;;;;;;5000317;28;20130;-91
2023/03/21 14:08:45;;;;;;;0.00;0.00;;;13.80;99.90;;;;;;5002973;28;20331;-89
2023/03/21 14:11:15;;;;;;;0.00;0.00;;;13.80;99.90;;;;;;4997695;28;20030;-89
2023/03/21 14:13:42;;;;;;;0.00;0.00;;;13.80;99.90;;;;;;4996360;28;20354;-92
2023/03/21 14:16:19;;;;;;;0.00;0.00;;;13.80;99.90;;;;;;4998473;28;20053;-89
2023/03/21 14:18:53;;;;;;;0.00;0.00;;;13.90;99.90;;;;;;5000757;28;20398;-91
2023/03/21 14:21:22;;;;;;;0.00;0.00;;;13.90;99.90;;;;;;5000255;28;20041;-89
2023/03/21 14:24:05;;;;;;;0.00;0.00;;;13.40;99.90;;;;;;5001101;28;20109;-87
2023/03/21 14:26:39;;;;;;;0.00;0.00;;;13.70;99.90;;;;;;4998865;28;20122;-90
2023/03/21 14:29:06;;;;;;;0.00;0.00;;;13.70;99.90;;;;;;5002833;28;20310;-90
2023/03/21 14:31:32;;;;;;;0.00;0.00;;;;;;;;;;4994917;28;21209;-91
2023/03/21 14:34:01;;;;;;;0.00;0.00;;;13.60;99.90;;;;;;5001074;28;20124;-92
2023/03/21 14:36:33;;;;;;;0.00;0.00;;;14.30;99.90;;;;;;5003154;28;20080;-91
2023/03/21 14:39:06;;;;;;;0.00;0.00;;;13.50;99.90;;;;;;5002282;28;20030;-88
2023/03/21 14:41:43;;;;;;;0.00;0.00;;;13.50;99.90;;;;;;5002040;28;20034;-91
2023/03/21 14:44:16;;;;;;;0.00;0.00;;;13.50;99.90;;;;;;4999872;28;20057;-90
2023/03/21 14:46:43;;;;;;;0.00;0.00;;;13.60;99.90;;;;;;5001041;28;20408;-90
2023/03/21 14:49:17;;;;;;;0.00;0.00;;;13.60;99.90;;;;;;5003990;28;20045;-91
2023/03/21 14:51:45;;;;;;;0.00;0.00;;;;;;;;;;5003002;28;20463;-90
2023/03/21 14:54:16;;;;;;;0.00;0.00;;;13.60;99.90;;;;;;4999290;28;20034;-89
2023/03/21 14:56:46;;;;;;;0.00;0.00;;;13.40;99.90;;;;;;5001452;28;20484;-90
2023/03/21 14:59:16;;;;;;;0.00;0.00;;;13.40;99.90;;;;;;5012887;28;20042;-91
2023/03/21 15:01:44;;;;;;;0.00;0.00;;;13.40;99.90;;;;;;4998100;28;20405;-91
2023/03/21 15:04:12;;;;;;;0.00;0.00;;;13.40;99.90;;;;;;5002165;28;20029;-89
2023/03/21 15:06:50;;;;;;;0.00;0.00;;;13.40;99.90;;;;;;5002517;28;20037;-91
2023/03/21 15:09:18;;;;;;;0.00;0.00;;;13.30;99.90;;;;;;5000082;28;20065;-89
2023/03/21 15:11:49;;;;;;;0.00;0.00;;;13.30;99.90;;;;;;5002849;28;20049;-90
2023/03/21 15:14:17;;;;;;;0.00;0.00;;;13.30;99.90;;;;;;5002049;28;20038;-91
2023/03/21 15:16:43;;;;;;;0.00;0.00;;;;;;;;;;5001709;28;20036;-90
2023/03/21 15:19:16;;;;;;;0.00;0.00;;;13.10;99.90;;;;;;5003809;28;20033;-87
2023/03/21 15:21:47;;;;;;;0.00;0.00;;;13.00;99.90;;;;;;4998518;28;20038;-91
2023/03/21 15:24:24;;;;;;;0.00;0.00;;;13.10;99.90;;;;;;5004477;28;20045;-90
2023/03/21 15:26:53;;;;;;;0.00;0.00;;;13.10;99.90;;;;;;5001282;28;20496;-90
2023/03/21 15:29:19;;;;;;;0.00;0.00;;;;;;;;;;5000943;28;20018;-91
2023/03/21 15:31:47;;;;;;;0.00;0.00;;;13.10;99.90;;;;;;5003590;28;20034;-90
2023/03/21 15:34:22;;;;;;;0.00;0.00;;;13.10;99.90;;;;;;5004134;28;20033;-92
2023/03/21 15:36:53;;;;;;;0.00;0.00;;;13.10;99.90;;;;;;4999871;28;20034;-92
2023/03/21 15:39:20;;;;;;;0.00;0.00;;;;;;;;;;4994411;28;20121;-91
2023/03/21 15:42:20;;;;;;;0.00;0.00;;;13.10;99.90;;;;;;4997553;28;20018;-90
2023/03/21 15:44:50;;;;;;;0.00;0.00;;;13.10;99.90;;;;;;4992954;28;20044;-91
2023/03/21 15:47:16;;;;;;;0.00;0.00;;;;;;;;;;5001408;28;20046;-90
2023/03/21 15:49:42;;;;;;;0.00;0.00;;;;;;;;;;5004288;28;20026;-93
2023/03/21 15:52:15;;;;;;;0.00;0.00;;;13.00;99.90;;;;;;5013301;28;20033;-90
2023/03/21 15:54:44;;;;;;;0.03;0.03;;;13.00;99.90;;;;;;5010157;28;20034;-90
2023/03/21 15:57:21;;;;;;;0.00;0.00;;;12.70;99.90;;;;;;4999036;28;20033;-91
2023/03/21 15:59:47;;;;;;;0.00;0.00;;;;;;;;;;4997464;28;20285;-90
2023/03/21 16:02:20;;;;;;;0.00;0.00;;;12.80;99.90;;;;;;5000440;28;20037;-90
2023/03/21 16:05:00;;;;;;;0.00;0.00;;;14.90;99.90;;;;;;4995527;28;20044;-89
2023/03/21 16:07:27;;;;;;;0.00;0.00;;;;;;;;;;5018266;28;20493;-90
2023/03/21 16:09:58;;;;;;;0.00;0.00;;;12.80;99.90;;;;;;5001796;28;20067;-90
2023/03/21 16:12:24;;;;;;;0.00;0.00;;;;;;;;;;4999889;28;20030;-90
2023/03/21 16:14:50;;;;;;;0.00;0.00;;;12.70;99.90;;;;;;5000358;28;20033;-91
2023/03/21 16:17:32;;;;;;;0.00;0.00;;;12.70;99.90;;;;;;4996807;28;20026;-91
2023/03/21 16:19:59;;;;;;;0.00;0.00;;;;;;;;;;4999389;28;20090;-90
2023/03/21 16:22:25;;;;;;;0.00;0.00;;;;;;;;;;4998778;28;20049;-91
2023/03/21 16:24:51;;;;;;;0.00;0.00;;;;;;;;;;5000559;28;20056;-90
2023/03/21 16:27:18;;;;;;;0.00;0.00;;;12.40;99.90;;;;;;4997842;28;20046;-91
2023/03/21 16:29:44;;;;;;;0.00;0.00;;;12.40;99.90;;;;;;5002093;28;20030;-89
2023/03/21 16:32:15;;;;;;;0.00;0.00;;;12.20;99.90;;;;;;5001564;28;20054;-89
2023/03/21 16:34:41;;;;;;;0.00;0.00;;;12.20;99.90;;;;;;5002939;28;20029;-90
2023/03/21 16:37:10;;;;;;;0.00;0.00;;;12.20;99.90;;;;;;5000416;28;20030;-89
2023/03/21 16:39:36;;;;;;;0.00;0.00;;;;;;;;;;5001647;28;20045;-90
2023/03/21 16:42:02;;;;;;;0.00;0.00;;;;;;;;;;5016903;28;20025;-88
2023/03/21 16:44:27;;;;;;;0.00;0.00;;;12.30;99.90;;;;;;4998076;28;20030;-91
2023/03/21 16:46:53;;;;;;;0.00;0.00;;;;;;;;;;4999995;28;20125;-90
2023/03/21 16:49:23;;;;;;;0.00;0.00;;;12.30;99.90;;;;;;4999800;28;20022;-88
2023/03/21 16:51:49;;;;;;;0.00;0.00;;;;;;;;;;5000687;28;20034;-91
2023/03/21 16:54:15;;;;;;;0.00;0.00;;;;;;;;;;5003395;28;20562;-90
2023/03/21 16:56:45;;;;;;;0.00;0.00;;;12.20;99.90;;;;;;5000611;28;20061;-90
2023/03/21 16:59:12;;;;;;;0.00;0.00;;;11.90;99.90;;;;;;4998417;28;20033;-91
2023/03/21 17:01:40;;;;;;;0.00;0.00;;;;;;;;;;5004632;28;20081;-91
2023/03/21 17:04:06;;;;;;;0.00;0.00;;;;;;;;;;5003907;28;20027;-92
2023/03/21 17:06:32;;;;;;;0.00;0.00;;;;;;;;;;4998184;28;20496;-93
2023/03/21 17:08:59;;;;;;;0.00;0.00;;;;;;;;;;5002210;28;20056;-91
2023/03/21 17:11:30;;;;;;;0.00;0.00;;;12.00;99.90;;;;;;4997769;28;20023;-92
2023/03/21 17:13:56;;;;;;;0.00;0.00;;;;;;;;;;5001917;28;20924;-91
2023/03/21 17:16:24;;;;;;;0.00;0.00;;;11.80;99.90;;;;;;5004880;28;20096;-91
2023/03/21 17:18:50;;;;;;;0.00;0.00;;;;;;;;;;5000981;28;20061;-92
2023/03/21 17:21:22;;;;;;;0.00;0.00;;;11.80;99.90;;;;;;5003371;28;20022;-91
2023/03/21 17:23:49;;;;;;;0.00;0.00;;;;;;;;;;4998958;28;20030;-91
2023/03/21 17:26:23;;;;;;;0.00;0.00;;;11.50;99.90;;;;;;5001148;28;20037;-90
2023/03/21 17:28:49;;;;;;;0.00;0.00;;;11.60;99.90;;;;;;5003694;28;20030;-92
2023/03/21 17:31:17;;;;;;;0.00;0.00;;;11.40;99.90;;;;;;5002952;28;20019;-91
2023/03/21 17:33:43;;;;;;;0.00;0.00;;;11.50;99.90;;;;;;5005431;28;20030;-91
2023/03/21 17:36:14;;;;;;;0.00;0.00;;;11.50;99.90;;;;;;5005844;28;20045;-92
2023/03/21 17:38:41;;;;;;;0.00;0.00;;;;;;;;;;5003635;28;20049;-92
2023/03/21 17:41:13;;;;;;;0.00;0.00;;;11.60;99.90;;;;;;5005516;28;20041;-94
2023/03/21 17:43:39;;;;;;;0.00;0.00;;;;;;;;;;5008593;28;20044;-92
2023/03/21 17:46:09;;;;;;;0.00;0.00;;;;;;;;;;5003950;28;20030;-92
2023/03/21 17:48:35;;;;;;;;;;;11.50;99.90;;;;;;5004843;28;20032;-89
2023/03/21 17:51:01;;;;;;;0.00;0.00;;;;;;;;;;4999871;28;19956;-91
2023/03/21 17:53:27;;;;;;;0.00;0.00;;;;;;;;;;5006058;28;20034;-91
2023/03/21 17:55:53;;;;;;;0.00;0.00;;;;;;;;;;5006852;28;20028;-91
2023/03/21 17:58:19;;;;;;;0.00;0.00;;;;;;;;;;5003421;28;20026;-91
2023/03/21 18:00:45;;;;;;;0.00;0.00;;;;;;;;;;5008435;28;20022;-93
2023/03/21 18:03:12;;;;;;;0.00;0.00;;;;;;;;;;4999010;28;20090;-92
2023/03/21 18:05:38;;;;;;;0.00;0.00;;;;;;;;;;5003451;28;20034;-92
2023/03/21 18:08:04;;;;;;;0.00;0.00;;;;;;;;;;5023662;28;20022;-91
2023/03/21 18:10:30;;;;;;;0.00;0.00;;;;;;;;;;5006694;28;20091;-92
2023/03/21 18:12:57;;;;;;;0.00;0.00;;;;;;;;;;5005343;28;20034;-89
2023/03/21 18:15:24;;;;;;;0.00;0.00;;;;;;;;;;5009809;28;20030;-90
2023/03/21 18:17:50;;;;;;;0.00;0.00;;;;;;;;;;5009709;28;20044;-89
2023/03/21 18:20:19;;;;;;;0.00;0.00;;;11.20;99.90;;;;;;5007144;28;20031;-90